Time;durP1;ratioP1;P1;durP2;ratioP2;P2;SDS_P1;SDS_P2;PMS_P1;PMS_P2;Temp;Humidity;BMP_temperature;BMP_pressure;BME280_temperature;BME280_humidity;BME280_pressure;Samples;Min_cycle;Max_cycle;Signal;HPM_P1;HPM_P2
2022/09/05 00:02:18;;;;;;;1.52;1.42;;;20.20;99.90;;;;;;5061340;28;20508;-38
2022/09/05 00:05:11;;;;;;;1.88;1.77;;;20.20;99.90;;;;;;5063869;28;20066;-34
2022/09/05 00:07:53;;;;;;;2.08;1.58;;;20.30;99.90;;;;;;5061496;28;20036;-32
2022/09/05 00:10:58;;;;;;;2.17;1.73;;;20.30;99.90;;;;;;5063623;28;20115;-34
2022/09/05 00:13:30;;;;;;;1.70;1.40;;;20.40;99.60;;;;;;5060509;28;20033;-32
2022/09/05 00:16:23;;;;;;;2.35;1.70;;;20.50;99.50;;;;;;5063540;28;20019;-37
2022/09/05 00:19:15;;;;;;;1.40;1.30;;;20.50;99.50;;;;;;5066134;28;20526;-41
2022/09/05 00:22:05;;;;;;;4.10;1.60;;;20.60;99.40;;;;;;5067708;28;20055;-36
2022/09/05 00:24:56;;;;;;;2.30;1.77;;;20.60;99.50;;;;;;5060321;28;20028;-40
2022/09/05 00:27:54;;;;;;;10.00;1.80;;;20.50;99.40;;;;;;5065207;28;20035;-39
2022/09/05 00:30:20;;;;;;;4.50;1.98;;;20.60;99.40;;;;;;5057309;28;20040;-32
2022/09/05 00:32:58;;;;;;;3.80;1.70;;;20.60;99.30;;;;;;5063477;28;20043;-38
2022/09/05 00:35:23;;;;;;;3.08;1.80;;;20.70;99.20;;;;;;5062990;28;20028;-34
2022/09/05 00:37:50;;;;;;;5.65;1.80;;;20.70;99.10;;;;;;5061895;28;20036;-40
2022/09/05 00:40:34;;;;;;;3.97;2.10;;;20.80;99.20;;;;;;5063491;28;20024;-38
2022/09/05 00:43:15;;;;;;;3.28;2.15;;;20.80;99.20;;;;;;5068495;28;20465;-41
2022/09/05 00:45:57;;;;;;;8.98;1.95;;;20.80;99.20;;;;;;5058953;28;20036;-38
2022/09/05 00:48:41;;;;;;;6.22;1.77;;;20.90;99.30;;;;;;5064088;28;20068;-36
2022/09/05 00:51:38;;;;;;;2.17;1.67;;;20.90;99.30;;;;;;5063329;28;20024;-42
2022/09/05 00:54:22;;;;;;;4.13;2.22;;;20.80;99.30;;;;;;5059260;28;20484;-38
2022/09/05 00:57:12;;;;;;;3.03;1.58;;;20.80;99.40;;;;;;5064470;28;20523;-60
2022/09/05 00:59:57;;;;;;;2.72;1.85;;;20.80;99.40;;;;;;5062876;28;20016;-40
2022/09/05 01:03:01;;;;;;;2.83;2.00;;;20.80;99.50;;;;;;5063394;28;20055;-41
2022/09/05 01:05:57;;;;;;;4.07;1.52;;;20.70;99.60;;;;;;5033051;28;20043;-38
2022/09/05 01:08:25;;;;;;;2.03;1.77;;;20.70;99.60;;;;;;5062575;28;20685;-40
2022/09/05 01:11:04;;;;;;;2.35;1.63;;;20.60;99.60;;;;;;5066231;28;20489;-41
2022/09/05 01:13:39;;;;;;;2.80;1.85;;;20.70;99.70;;;;;;5062666;28;20028;-44
2022/09/05 01:16:31;;;;;;;1.88;1.77;;;20.60;99.80;;;;;;5061296;28;20103;-46
2022/09/05 01:19:20;;;;;;;2.25;1.50;;;20.60;99.80;;;;;;5062455;28;20064;-40
2022/09/05 01:22:04;;;;;;;2.28;1.50;;;20.60;99.90;;;;;;5062862;28;20028;-34
2022/09/05 01:25:07;;;;;;;2.92;1.83;;;20.60;99.90;;;;;;5058692;28;20071;-34
2022/09/05 01:28:10;;;;;;;2.03;1.85;;;20.50;99.90;;;;;;5061411;28;20028;-30
2022/09/05 01:31:05;;;;;;;3.88;2.22;;;20.50;99.90;;;;;;5056753;28;20035;-37
2022/09/05 01:33:50;;;;;;;4.03;2.13;;;20.50;99.90;;;;;;5063482;28;20034;-36
2022/09/05 01:36:43;;;;;;;2.65;1.90;;;20.50;99.90;;;;;;5060613;28;20078;-33
2022/09/05 01:39:39;;;;;;;3.75;2.05;;;20.50;99.90;;;;;;5061069;28;20445;-37
2022/09/05 01:42:21;;;;;;;9.27;2.27;;;20.50;99.90;;;;;;5061229;28;20218;-36
2022/09/05 01:45:09;;;;;;;5.05;1.83;;;20.50;99.90;;;;;;5059663;28;20294;-37
2022/09/05 01:47:55;;;;;;;2.20;1.95;;;20.50;99.90;;;;;;5061786;28;20028;-31
2022/09/05 01:50:48;;;;;;;2.90;2.17;;;20.50;99.90;;;;;;5059728;28;20033;-36
2022/09/05 01:53:36;;;;;;;3.83;1.85;;;20.50;99.90;;;;;;5061489;28;20527;-38
2022/09/05 01:56:20;;;;;;;2.05;1.63;;;20.40;99.90;;;;;;5057894;28;20028;-40
2022/09/05 01:59:00;;;;;;;1.52;1.42;;;20.30;99.90;;;;;;5062955;28;21939;-42
2022/09/05 02:02:17;;;;;;;2.35;2.15;;;20.30;99.90;;;;;;5064449;28;20145;-38
2022/09/05 02:05:00;;;;;;;2.28;2.00;;;20.30;99.90;;;;;;5035921;28;20098;-37
2022/09/05 02:07:45;;;;;;;2.35;2.15;;;20.30;99.90;;;;;;5062210;28;20028;-38
2022/09/05 02:10:39;;;;;;;3.67;1.70;;;20.20;99.90;;;;;;5062282;28;20392;-38
2022/09/05 02:13:34;;;;;;;2.47;2.00;;;20.20;99.90;;;;;;5057279;28;20124;-36
2022/09/05 02:16:37;;;;;;;3.03;1.90;;;20.20;99.90;;;;;;5058930;28;20476;-36
2022/09/05 02:19:08;;;;;;;3.35;1.80;;;20.20;99.90;;;;;;5060972;28;20047;-33
2022/09/05 02:21:37;;;;;;;2.65;2.30;;;20.20;99.90;;;;;;5062436;28;20086;-37
2022/09/05 02:24:32;;;;;;;4.53;1.90;;;20.20;99.90;;;;;;5059372;28;20397;-35
2022/09/05 02:27:19;;;;;;;5.15;2.10;;;20.20;99.90;;;;;;5059932;28;20508;-41
2022/09/05 02:30:07;;;;;;;2.78;2.38;;;20.30;99.90;;;;;;5060378;28;20066;-35
2022/09/05 02:32:51;;;;;;;4.35;2.13;;;20.30;99.90;;;;;;5063359;28;20048;-37
2022/09/05 02:35:31;;;;;;;7.93;2.35;;;20.30;99.90;;;;;;5058484;28;20488;-40
2022/09/05 02:38:10;;;;;;;8.20;2.65;;;20.30;99.90;;;;;;5060190;28;20043;-38
2022/09/05 02:40:36;;;;;;;3.22;2.00;;;20.30;99.90;;;;;;5060800;28;20045;-34
2022/09/05 02:43:26;;;;;;;3.03;2.28;;;20.20;99.90;;;;;;5078709;28;20489;-36
2022/09/05 02:46:09;;;;;;;7.55;3.00;;;20.20;99.90;;;;;;5059128;28;20032;-39
2022/09/05 02:48:53;;;;;;;2.53;2.33;;;20.20;99.90;;;;;;5059130;28;20028;-37
2022/09/05 02:51:31;;;;;;;2.65;1.92;;;20.20;99.90;;;;;;5060849;28;20021;-38
2022/09/05 02:54:30;;;;;;;8.13;2.38;;;20.20;99.90;;;;;;5064813;28;20488;-37
2022/09/05 02:57:11;;;;;;;8.30;2.40;;;20.20;99.90;;;;;;5060260;28;20024;-36
2022/09/05 03:00:14;;;;;;;4.47;2.50;;;20.20;99.90;;;;;;5058487;28;20031;-39
2022/09/05 03:03:19;;;;;;;5.05;2.42;;;20.20;99.90;;;;;;5062848;28;20515;-41
2022/09/05 03:06:18;;;;;;;6.07;2.67;;;20.10;99.90;;;;;;5050305;28;20392;-33
2022/09/05 03:09:06;;;;;;;2.92;2.55;;;20.10;99.90;;;;;;5053030;28;20471;-34
2022/09/05 03:11:56;;;;;;;2.58;2.30;;;20.10;99.90;;;;;;5059930;28;20468;-32
2022/09/05 03:14:36;;;;;;;6.70;2.53;;;20.00;99.90;;;;;;5062361;28;20480;-32
2022/09/05 03:17:23;;;;;;;4.00;3.28;;;20.00;99.90;;;;;;5061981;28;21197;-33
2022/09/05 03:20:01;;;;;;;5.22;2.50;;;20.00;99.90;;;;;;5062960;28;20037;-33
2022/09/05 03:22:55;;;;;;;4.43;3.30;;;19.90;99.90;;;;;;5061146;28;20056;-40
2022/09/05 03:25:45;;;;;;;3.65;3.10;;;19.90;99.90;;;;;;5061875;28;20051;-37
2022/09/05 03:28:53;;;;;;;4.68;3.15;;;19.90;99.90;;;;;;5056671;28;20450;-41
2022/09/05 03:31:55;;;;;;;5.97;2.63;;;19.90;99.90;;;;;;5053647;28;20564;-32
2022/09/05 03:34:50;;;;;;;3.58;2.88;;;19.80;99.90;;;;;;5054441;28;20044;-40
2022/09/05 03:37:37;;;;;;;5.55;3.50;;;19.80;99.90;;;;;;5054001;28;20053;-39
2022/09/05 03:40:33;;;;;;;6.07;3.65;;;19.80;99.90;;;;;;5058888;28;20040;-38
2022/09/05 03:43:19;;;;;;;5.18;3.33;;;19.80;99.90;;;;;;5054245;28;20136;-33
2022/09/05 03:46:07;;;;;;;6.20;4.70;;;19.80;99.90;;;;;;5059279;28;20040;-35
2022/09/05 03:48:51;;;;;;;5.28;4.25;;;19.80;99.90;;;;;;5060391;28;20089;-33
2022/09/05 03:51:50;;;;;;;4.30;3.90;;;19.80;99.90;;;;;;5059724;28;20055;-39
2022/09/05 03:54:50;;;;;;;3.45;3.13;;;19.70;99.90;;;;;;5064373;28;20503;-39
2022/09/05 03:57:34;;;;;;;6.18;3.85;;;19.70;99.90;;;;;;5062658;28;20475;-35
2022/09/05 04:00:09;;;;;;;5.97;4.65;;;19.70;99.90;;;;;;5062163;28;20475;-40
2022/09/05 04:03:14;;;;;;;7.18;4.22;;;19.70;99.90;;;;;;5064923;28;20524;-31
2022/09/05 04:05:46;;;;;;;8.38;4.50;;;19.70;99.90;;;;;;5056696;28;20028;-37
2022/09/05 04:08:34;;;;;;;6.97;4.25;;;19.70;99.90;;;;;;5065397;28;20035;-34
2022/09/05 04:11:13;;;;;;;6.80;4.75;;;19.60;99.90;;;;;;5055138;28;20056;-38
2022/09/05 04:13:44;;;;;;;5.88;4.80;;;19.60;99.90;;;;;;5065598;28;21423;-34
2022/09/05 04:16:18;;;;;;;6.18;4.90;;;19.70;99.90;;;;;;5064097;28;20035;-39
2022/09/05 04:18:49;;;;;;;5.82;4.70;;;19.70;99.90;;;;;;5066281;28;20392;-35
2022/09/05 04:21:22;;;;;;;5.53;4.28;;;19.60;99.90;;;;;;5061696;28;20495;-39
2022/09/05 04:24:09;;;;;;;7.10;4.47;;;19.60;99.90;;;;;;5065245;28;20139;-34
2022/09/05 04:26:58;;;;;;;6.63;4.90;;;19.60;99.90;;;;;;5066152;28;20016;-40
2022/09/05 04:29:43;;;;;;;9.10;4.78;;;19.60;99.90;;;;;;5063894;28;20028;-36
2022/09/05 04:32:50;;;;;;;13.40;5.10;;;19.60;99.90;;;;;;5063844;28;20021;-40
2022/09/05 04:35:27;;;;;;;5.55;4.50;;;19.50;99.90;;;;;;5061037;28;20031;-38
2022/09/05 04:38:12;;;;;;;10.15;5.45;;;19.50;99.90;;;;;;5063655;28;20605;-43
2022/09/05 04:40:59;;;;;;;10.05;4.28;;;19.50;99.90;;;;;;5060133;28;20515;-47
2022/09/05 04:43:44;;;;;;;12.70;4.93;;;19.50;99.90;;;;;;5063331;28;20032;-39
2022/09/05 04:46:27;;;;;;;7.75;4.90;;;19.50;99.90;;;;;;5078838;28;20028;-39
2022/09/05 04:49:05;;;;;;;7.82;5.25;;;19.50;99.90;;;;;;5063475;28;20488;-45
2022/09/05 04:52:01;;;;;;;10.32;5.72;;;19.50;99.90;;;;;;5066555;28;20048;-37
2022/09/05 04:54:45;;;;;;;11.10;5.40;;;19.40;99.90;;;;;;5063614;28;20451;-36
2022/09/05 04:57:32;;;;;;;10.45;5.55;;;19.50;99.90;;;;;;5065302;28;20021;-36
2022/09/05 05:00:16;;;;;;;5.50;5.00;;;19.40;99.90;;;;;;5060772;28;20404;-32
2022/09/05 05:02:50;;;;;;;7.60;5.65;;;19.40;99.90;;;;;;5061760;28;20048;-32
2022/09/05 05:05:17;;;;;;;6.97;5.10;;;19.40;99.90;;;;;;5059645;28;20032;-38
2022/09/05 05:07:49;;;;;;;5.90;5.13;;;19.30;99.90;;;;;;5064720;28;20036;-36
2022/09/05 05:10:23;;;;;;;11.68;5.10;;;19.40;99.90;;;;;;5061976;28;20020;-36
2022/09/05 05:12:56;;;;;;;8.85;5.10;;;19.30;99.90;;;;;;5061225;28;20477;-37
2022/09/05 05:15:24;;;;;;;8.45;5.22;;;19.30;99.90;;;;;;5061813;28;20028;-37
2022/09/05 05:18:01;;;;;;;9.38;5.32;;;19.40;99.90;;;;;;5060881;28;20029;-35
2022/09/05 05:20:54;;;;;;;9.67;5.40;;;19.40;99.90;;;;;;5062807;28;20024;-39
2022/09/05 05:23:34;;;;;;;17.42;6.20;;;19.40;99.90;;;;;;5061594;28;20029;-40
2022/09/05 05:26:03;;;;;;;9.07;5.78;;;19.40;99.90;;;;;;5056592;28;20036;-39
2022/09/05 05:28:51;;;;;;;13.90;5.97;;;19.50;99.90;;;;;;5063253;28;20489;-36
2022/09/05 05:31:19;;;;;;;;;;;19.50;99.90;;;;;;5062562;28;20465;-42
2022/09/05 05:33:49;;;;;;;7.85;5.63;;;19.50;99.90;;;;;;5064453;28;20374;-41
2022/09/05 05:36:37;;;;;;;9.77;5.60;;;19.50;99.90;;;;;;5063325;28;20024;-41
2022/09/05 05:39:12;;;;;;;13.18;5.88;;;19.60;99.90;;;;;;5056196;28;20536;-39
2022/09/05 05:41:48;;;;;;;14.85;5.75;;;19.50;99.90;;;;;;5062728;28;20029;-35
2022/09/05 05:44:17;;;;;;;7.20;5.10;;;19.50;99.90;;;;;;5061045;28;20032;-37
2022/09/05 05:46:58;;;;;;;17.10;5.45;;;19.60;99.90;;;;;;5062578;28;20024;-43
2022/09/05 05:49:30;;;;;;;12.60;5.55;;;19.60;99.90;;;;;;5061028;28;20400;-40
2022/09/05 05:52:33;;;;;;;11.00;5.88;;;19.60;99.90;;;;;;5062181;28;20031;-39
2022/09/05 05:55:11;;;;;;;7.88;5.60;;;19.70;99.90;;;;;;5060522;28;20024;-40
2022/09/05 05:57:40;;;;;;;11.05;5.72;;;19.80;99.90;;;;;;5056127;28;20459;-43
2022/09/05 06:00:18;;;;;;;9.13;5.68;;;19.80;99.90;;;;;;5056281;28;20384;-42
2022/09/05 06:03:22;;;;;;;9.07;4.93;;;19.90;99.90;;;;;;5058351;28;20068;-40
2022/09/05 06:06:08;;;;;;;14.98;5.30;;;19.90;99.90;;;;;;5052313;28;20093;-44
2022/09/05 06:08:46;;;;;;;8.77;5.30;;;20.00;99.90;;;;;;5063078;28;20119;-36
2022/09/05 06:11:24;;;;;;;;;;;20.10;99.90;;;;;;5062217;28;20024;-56
2022/09/05 06:14:20;;;;;;;9.40;5.88;;;20.20;99.90;;;;;;5062945;28;19909;-34
2022/09/05 06:16:57;;;;;;;7.43;6.05;;;20.20;99.90;;;;;;5050682;28;20560;-39
2022/09/05 06:19:29;;;;;;;;;;;20.40;99.90;;;;;;5060273;28;20494;-38
2022/09/05 06:22:00;;;;;;;7.75;5.35;;;20.40;99.90;;;;;;5066362;28;19919;-40
2022/09/05 06:24:56;;;;;;;10.65;5.55;;;20.50;99.90;;;;;;5058015;28;20553;-36
2022/09/05 06:27:45;;;;;;;10.57;6.78;;;20.60;99.90;;;;;;5056078;28;20070;-41
2022/09/05 06:30:19;;;;;;;8.20;5.32;;;20.70;99.90;;;;;;5058777;28;21117;-38
2022/09/05 06:33:08;;;;;;;10.75;6.05;;;20.80;99.90;;;;;;5066409;28;20017;-39
2022/09/05 06:35:46;;;;;;;13.02;7.03;;;20.90;99.90;;;;;;5060270;28;20127;-40
2022/09/05 06:38:44;;;;;;;11.38;6.78;;;21.00;99.90;;;;;;5062279;28;20040;-39
2022/09/05 06:41:31;;;;;;;14.02;6.72;;;21.00;99.90;;;;;;5060578;28;20032;-39
2022/09/05 06:44:00;;;;;;;;;;;21.10;99.90;;;;;;5059528;28;20044;-35
2022/09/05 06:46:36;;;;;;;9.48;6.75;;;21.10;99.90;;;;;;5065388;28;19912;-40
2022/09/05 06:49:20;;;;;;;9.55;6.43;;;21.20;99.90;;;;;;5062958;28;20388;-40
2022/09/05 06:51:56;;;;;;;9.88;7.00;;;21.20;99.90;;;;;;5071585;28;20018;-64
2022/09/05 06:55:00;;;;;;;14.40;6.82;;;21.20;99.90;;;;;;5064916;28;20021;-44
2022/09/05 06:57:49;;;;;;;10.68;7.03;;;21.20;99.90;;;;;;5044659;28;20538;-39
2022/09/05 07:00:19;;;;;;;9.15;6.60;;;21.30;99.90;;;;;;5054470;28;20063;-43
2022/09/05 07:03:16;;;;;;;9.40;6.63;;;21.30;99.90;;;;;;5056090;28;20124;-38
2022/09/05 07:05:56;;;;;;;10.25;6.95;;;21.40;99.90;;;;;;5064269;28;20422;-39
2022/09/05 07:08:29;;;;;;;13.50;7.20;;;21.50;99.90;;;;;;5056056;28;20469;-38
2022/09/05 07:11:04;;;;;;;11.32;6.68;;;21.50;99.90;;;;;;5065393;28;20484;-38
2022/09/05 07:13:45;;;;;;;8.70;6.70;;;21.60;99.90;;;;;;5062238;28;20024;-37
2022/09/05 07:16:24;;;;;;;11.25;6.70;;;21.70;99.90;;;;;;5060576;28;20020;-38
2022/09/05 07:19:04;;;;;;;13.10;6.43;;;21.90;99.90;;;;;;5056863;28;20032;-38
2022/09/05 07:21:36;;;;;;;9.68;5.97;;;22.00;99.90;;;;;;5060948;28;20484;-38
2022/09/05 07:24:18;;;;;;;12.52;5.32;;;22.10;99.90;;;;;;5068721;28;20036;-38
2022/09/05 07:26:46;;;;;;;8.35;5.57;;;22.30;99.90;;;;;;5063185;28;20496;-40
2022/09/05 07:29:35;;;;;;;8.30;5.32;;;22.50;99.90;;;;;;5065415;28;20020;-38
2022/09/05 07:32:05;;;;;;;6.63;5.22;;;22.60;99.90;;;;;;5062456;28;20086;-43
2022/09/05 07:34:33;;;;;;;9.40;5.22;;;22.80;99.90;;;;;;5060900;28;20025;-37
2022/09/05 07:37:09;;;;;;;11.57;5.85;;;22.80;99.90;;;;;;5062536;28;20017;-34
2022/09/05 07:40:08;;;;;;;8.27;5.13;;;22.90;99.90;;;;;;5065689;28;20035;-40
2022/09/05 07:42:50;;;;;;;7.28;5.45;;;22.90;99.90;;;;;;5060948;28;20031;-41
2022/09/05 07:45:27;;;;;;;8.48;4.70;;;23.10;99.90;;;;;;5063323;28;20103;-40
2022/09/05 07:47:58;;;;;;;16.95;5.75;;;23.30;99.90;;;;;;5064872;28;20037;-33
2022/09/05 07:50:26;;;;;;;7.30;4.70;;;23.50;99.90;;;;;;5064283;28;20020;-36
2022/09/05 07:52:56;;;;;;;15.38;5.38;;;23.70;99.80;;;;;;5063450;28;20107;-40
2022/09/05 07:55:26;;;;;;;5.10;4.03;;;23.90;99.30;;;;;;5066204;28;20487;-36
2022/09/05 07:57:58;;;;;;;10.50;4.93;;;24.00;99.30;;;;;;5061720;28;20495;-41
2022/09/05 08:00:26;;;;;;;9.38;5.07;;;24.20;99.40;;;;;;5063972;28;20134;-39
2022/09/05 08:02:52;;;;;;;6.10;4.03;;;24.30;99.10;;;;;;5062870;28;20076;-38
2022/09/05 08:05:24;;;;;;;9.88;4.22;;;24.40;98.70;;;;;;5065385;28;20341;-38
2022/09/05 08:07:58;;;;;;;7.72;4.43;;;24.70;98.30;;;;;;5061068;28;20032;-35
2022/09/05 08:10:35;;;;;;;5.07;4.57;;;24.80;98.60;;;;;;5065710;28;20489;-38
2022/09/05 08:13:08;;;;;;;7.82;4.13;;;24.90;98.10;;;;;;5059514;28;20455;-36
2022/09/05 08:15:37;;;;;;;6.20;4.32;;;25.00;97.70;;;;;;5065618;28;20507;-31
2022/09/05 08:18:17;;;;;;;7.57;4.03;;;25.10;97.60;;;;;;5063306;28;20025;-32
2022/09/05 08:21:23;;;;;;;6.95;3.17;;;25.30;97.30;;;;;;5061520;28;20513;-35
2022/09/05 08:23:56;;;;;;;6.43;3.65;;;25.50;97.00;;;;;;5061794;28;20067;-34
2022/09/05 08:26:37;;;;;;;8.05;3.40;;;25.60;97.00;;;;;;5063967;28;20028;-34
2022/09/05 08:29:29;;;;;;;4.88;2.60;;;25.80;96.60;;;;;;5063579;28;20028;-33
2022/09/05 08:32:10;;;;;;;3.78;3.10;;;25.90;96.70;;;;;;5053314;28;20032;-36
2022/09/05 08:35:05;;;;;;;4.30;3.75;;;26.00;96.40;;;;;;5055268;28;20029;-35
2022/09/05 08:37:32;;;;;;;4.70;2.65;;;26.20;95.90;;;;;;5060839;28;20476;-39
2022/09/05 08:40:21;;;;;;;10.88;2.53;;;26.30;96.00;;;;;;5065016;28;20476;-36
2022/09/05 08:43:02;;;;;;;6.05;2.70;;;26.50;95.80;;;;;;5053467;28;20060;-35
2022/09/05 08:45:39;;;;;;;4.38;1.98;;;26.60;95.60;;;;;;5061402;28;20490;-35
2022/09/05 08:48:13;;;;;;;;;;;26.70;94.80;;;;;;5059885;28;20101;-32
2022/09/05 08:50:57;;;;;;;2.53;2.30;;;26.70;95.00;;;;;;5057938;28;19913;-34
2022/09/05 08:53:40;;;;;;;2.80;2.50;;;26.70;95.30;;;;;;5061709;28;20069;-33
2022/09/05 08:56:37;;;;;;;2.88;2.05;;;26.60;95.00;;;;;;5059709;28;20095;-32
2022/09/05 08:59:25;;;;;;;7.28;3.00;;;26.80;94.60;;;;;;5061358;28;20279;-32
2022/09/05 09:01:54;;;;;;;2.35;2.00;;;26.90;94.70;;;;;;5058915;28;20048;-52
2022/09/05 09:04:27;;;;;;;3.45;1.90;;;27.00;95.20;;;;;;5064348;28;20388;-36
2022/09/05 09:07:04;;;;;;;3.70;2.00;;;27.20;94.50;;;;;;5059957;28;20028;-42
2022/09/05 09:09:36;;;;;;;4.40;1.60;;;27.50;93.90;;;;;;5061781;28;20767;-32
2022/09/05 09:12:47;;;;;;;2.03;1.45;;;27.60;93.80;;;;;;5059803;28;20681;-37
2022/09/05 09:15:44;;;;;;;6.40;1.88;;;27.60;94.30;;;;;;5061332;28;20135;-39
2022/09/05 09:18:16;;;;;;;3.17;1.63;;;27.70;93.70;;;;;;5062692;28;20041;-41
2022/09/05 09:20:42;;;;;;;1.80;1.58;;;27.80;94.00;;;;;;5061259;28;20016;-34
2022/09/05 09:23:31;;;;;;;6.43;2.25;;;28.00;93.90;;;;;;5063493;28;20159;-41
2022/09/05 09:26:12;;;;;;;1.98;1.40;;;28.20;93.60;;;;;;5060746;28;20028;-40
2022/09/05 09:29:01;;;;;;;1.67;1.58;;;28.50;93.10;;;;;;5057207;28;20028;-38
2022/09/05 09:31:36;;;;;;;5.15;1.20;;;28.60;93.30;;;;;;5068142;28;20149;-33
2022/09/05 09:34:20;;;;;;;4.45;1.50;;;28.80;92.60;;;;;;5060619;28;20039;-40
2022/09/05 09:37:10;;;;;;;5.88;1.52;;;29.00;92.30;;;;;;5056573;28;20027;-34
2022/09/05 09:39:58;;;;;;;1.33;1.23;;;29.00;91.90;;;;;;5061299;28;20725;-39
2022/09/05 09:42:52;;;;;;;3.88;1.50;;;29.10;91.50;;;;;;5059511;28;20035;-34
2022/09/05 09:45:30;;;;;;;1.70;1.40;;;29.20;91.20;;;;;;5060596;28;20051;-40
2022/09/05 09:48:17;;;;;;;1.02;1.00;;;29.20;91.60;;;;;;5061097;28;20122;-35
2022/09/05 09:51:05;;;;;;;1.67;1.30;;;29.30;91.10;;;;;;5057694;28;20049;-40
2022/09/05 09:57:22;;;;;;;3.53;1.10;;;29.70;90.50;;;;;;5058304;28;20131;-37
2022/09/05 10:00:10;;;;;;;2.20;1.23;;;29.70;90.70;;;;;;5063823;28;20476;-35
2022/09/05 10:02:48;;;;;;;2.05;1.35;;;29.90;90.10;;;;;;5061019;28;20040;-34
2022/09/05 10:05:47;;;;;;;1.42;1.33;;;30.00;89.80;;;;;;5053623;28;20036;-36
2022/09/05 10:08:51;;;;;;;2.53;1.48;;;30.10;90.00;;;;;;5057169;28;20564;-32
2022/09/05 10:11:44;;;;;;;6.03;1.30;;;30.20;90.00;;;;;;5062278;28;20396;-35
2022/09/05 10:14:33;;;;;;;10.18;1.30;;;30.40;89.60;;;;;;5058207;28;20108;-39
2022/09/05 10:17:14;;;;;;;2.47;1.38;;;30.50;89.40;;;;;;5051991;28;20272;-33
2022/09/05 10:20:03;;;;;;;1.30;1.10;;;30.60;87.90;;;;;;5059654;28;20737;-38
2022/09/05 10:23:06;;;;;;;1.30;0.82;;;30.70;87.20;;;;;;5055307;28;20038;-32
2022/09/05 10:26:02;;;;;;;1.95;1.20;;;30.90;87.50;;;;;;5059261;28;20376;-32
2022/09/05 10:28:48;;;;;;;3.85;1.40;;;31.00;87.00;;;;;;5060312;28;20368;-35
2022/09/05 10:31:17;;;;;;;2.17;1.50;;;31.00;87.10;;;;;;5060522;28;20500;-40
2022/09/05 10:34:03;;;;;;;1.38;1.08;;;31.00;86.20;;;;;;5058430;28;20020;-38
2022/09/05 10:36:30;;;;;;;2.80;1.30;;;31.00;86.50;;;;;;5062589;28;20040;-34
2022/09/05 10:39:20;;;;;;;2.70;1.38;;;30.90;85.90;;;;;;5059590;28;20107;-36
2022/09/05 10:41:50;;;;;;;5.03;1.20;;;30.70;87.30;;;;;;5062425;28;20025;-38
2022/09/05 10:44:40;;;;;;;1.77;1.17;;;30.50;86.10;;;;;;5057093;28;20543;-37
2022/09/05 10:47:27;;;;;;;1.33;1.10;;;30.40;86.60;;;;;;5053308;28;20040;-37
2022/09/05 10:50:25;;;;;;;1.58;1.33;;;30.40;86.30;;;;;;5062638;28;20037;-35
2022/09/05 10:53:28;;;;;;;2.25;1.00;;;30.40;86.10;;;;;;5065165;28;20029;-39
2022/09/05 10:56:23;;;;;;;3.67;1.92;;;30.50;85.90;;;;;;5055431;28;20025;-37
2022/09/05 10:59:00;;;;;;;1.77;1.33;;;30.70;85.90;;;;;;5056808;28;20387;-36
2022/09/05 11:01:38;;;;;;;1.23;1.13;;;30.70;85.50;;;;;;5065826;28;20396;-36
2022/09/05 11:07:02;;;;;;;2.58;1.10;;;30.70;85.40;;;;;;5061807;28;20050;-37
2022/09/05 11:09:49;;;;;;;3.78;1.10;;;30.80;85.70;;;;;;5060518;28;20500;-37
2022/09/05 11:12:46;;;;;;;1.85;1.30;;;31.00;84.50;;;;;;5065483;28;20085;-44
2022/09/05 11:15:35;;;;;;;1.20;1.10;;;31.10;84.50;;;;;;5061692;28;20379;-37
2022/09/05 11:18:04;;;;;;;2.28;1.17;;;31.00;84.40;;;;;;5061471;28;20025;-37
2022/09/05 11:20:58;;;;;;;1.25;0.90;;;31.10;85.10;;;;;;5082006;28;20066;-39
2022/09/05 11:23:38;;;;;;;2.13;1.20;;;31.30;85.40;;;;;;5073304;28;20255;-39
2022/09/05 11:26:11;;;;;;;2.88;1.40;;;31.40;84.80;;;;;;5067422;28;20059;-42
2022/09/05 11:28:53;;;;;;;4.85;1.25;;;31.30;84.30;;;;;;5057963;28;20508;-39
2022/09/05 11:31:23;;;;;;;1.42;1.20;;;31.20;84.70;;;;;;5052356;28;20021;-36
2022/09/05 11:34:16;;;;;;;6.57;1.63;;;31.40;84.80;;;;;;5053095;28;20032;-36
2022/09/05 11:36:49;;;;;;;2.35;1.20;;;31.40;84.10;;;;;;5065042;28;20107;-39
2022/09/05 11:39:34;;;;;;;7.03;1.48;;;31.30;84.10;;;;;;5059711;28;20029;-34
2022/09/05 11:42:13;;;;;;;1.58;1.48;;;31.00;84.10;;;;;;5069575;28;20029;-31
2022/09/05 11:45:01;;;;;;;3.40;1.15;;;30.70;84.20;;;;;;5066299;28;20073;-33
2022/09/05 11:47:55;;;;;;;1.55;1.20;;;30.40;85.00;;;;;;5066208;28;20036;-34
2022/09/05 11:50:39;;;;;;;5.50;1.25;;;30.40;85.00;;;;;;5064480;28;20029;-35
2022/09/05 11:53:11;;;;;;;2.83;1.05;;;30.60;84.90;;;;;;5064185;28;20030;-49
2022/09/05 11:55:52;;;;;;;1.50;1.00;;;30.70;84.40;;;;;;5062393;28;20590;-50
2022/09/05 11:58:36;;;;;;;4.57;1.15;;;30.90;84.70;;;;;;5064615;28;20388;-32
2022/09/05 12:01:32;;;;;;;1.35;1.10;;;30.90;83.90;;;;;;5062714;28;20591;-31
2022/09/05 12:04:14;;;;;;;1.40;1.17;;;30.80;84.20;;;;;;5063264;28;20047;-38
2022/09/05 12:07:04;;;;;;;3.60;1.40;;;30.80;83.40;;;;;;5066813;28;20283;-34
2022/09/05 12:09:59;;;;;;;1.17;1.05;;;30.70;84.70;;;;;;5063704;28;20051;-34
2022/09/05 12:12:58;;;;;;;1.13;1.13;;;30.60;84.00;;;;;;5064803;28;20016;-34
2022/09/05 12:15:32;;;;;;;2.92;0.98;;;30.60;83.60;;;;;;5063299;28;20240;-35
2022/09/05 12:18:18;;;;;;;1.00;1.00;;;30.90;83.80;;;;;;5063627;28;20043;-33
2022/09/05 12:20:52;;;;;;;2.72;1.42;;;31.20;84.10;;;;;;5060606;28;20500;-33
2022/09/05 12:23:30;;;;;;;1.08;0.95;;;31.20;83.60;;;;;;5063012;28;20469;-34
2022/09/05 12:26:33;;;;;;;2.15;1.88;;;31.20;82.70;;;;;;5060123;28;20542;-32
2022/09/05 12:29:08;;;;;;;1.80;0.93;;;31.20;82.60;;;;;;5063341;28;20451;-41
2022/09/05 12:31:57;;;;;;;1.20;1.00;;;31.30;82.60;;;;;;5065035;28;20078;-37
2022/09/05 12:34:50;;;;;;;1.30;1.10;;;31.50;83.20;;;;;;5064934;28;20028;-35
2022/09/05 12:37:21;;;;;;;0.90;0.90;;;31.90;82.70;;;;;;5059699;28;20028;-35
2022/09/05 12:40:11;;;;;;;1.50;0.75;;;32.10;82.10;;;;;;5065960;28;20071;-33
2022/09/05 12:42:51;;;;;;;1.50;1.13;;;32.30;81.90;;;;;;5065533;28;20077;-36
2022/09/05 12:45:32;;;;;;;1.30;1.00;;;32.50;81.80;;;;;;5060402;28;20020;-38
2022/09/05 12:48:23;;;;;;;6.07;1.00;;;32.40;81.70;;;;;;5063888;28;20067;-34
2022/09/05 12:51:03;;;;;;;3.45;1.38;;;32.30;81.40;;;;;;5063711;28;20032;-33
2022/09/05 12:53:43;;;;;;;3.00;0.90;;;32.20;81.80;;;;;;5064725;28;20555;-34
2022/09/05 12:56:21;;;;;;;0.80;0.80;;;32.10;82.00;;;;;;5062255;28;20542;-35
2022/09/05 12:58:50;;;;;;;1.10;0.80;;;32.10;82.00;;;;;;5062403;28;20043;-33
2022/09/05 13:01:32;;;;;;;3.03;1.13;;;32.10;82.20;;;;;;5060883;28;20506;-34
2022/09/05 13:04:17;;;;;;;1.38;1.02;;;32.20;81.50;;;;;;5062901;28;20039;-36
2022/09/05 13:07:01;;;;;;;1.45;1.08;;;32.50;81.50;;;;;;5061671;28;20032;-31
2022/09/05 13:09:36;;;;;;;1.33;1.17;;;32.50;80.90;;;;;;5064108;28;20032;-34
2022/09/05 13:12:22;;;;;;;2.00;0.90;;;32.40;80.60;;;;;;5061213;28;20020;-34
2022/09/05 13:15:04;;;;;;;2.80;1.63;;;32.20;81.10;;;;;;5062528;28;20499;-49
2022/09/05 13:17:43;;;;;;;1.10;1.00;;;32.00;81.20;;;;;;5060334;28;20032;-31
2022/09/05 13:20:34;;;;;;;1.10;1.00;;;32.10;81.80;;;;;;5063743;28;20476;-34
2022/09/05 13:23:23;;;;;;;3.50;1.08;;;32.30;81.50;;;;;;5060038;28;20546;-35
2022/09/05 13:26:02;;;;;;;1.60;1.00;;;32.50;81.00;;;;;;5063667;28;20440;-33
2022/09/05 13:28:47;;;;;;;1.02;0.90;;;32.40;80.90;;;;;;5063906;28;20024;-55
2022/09/05 13:31:14;;;;;;;1.30;1.20;;;32.40;80.60;;;;;;5065493;28;20544;-31
2022/09/05 13:33:50;;;;;;;1.00;0.90;;;32.20;80.80;;;;;;5065837;28;20533;-39
2022/09/05 13:36:23;;;;;;;4.70;1.10;;;31.90;81.00;;;;;;5060698;28;20481;-33
2022/09/05 13:39:06;;;;;;;2.72;1.23;;;31.80;81.20;;;;;;5063305;28;20032;-38
2022/09/05 13:41:58;;;;;;;2.72;0.98;;;31.60;81.20;;;;;;5062574;28;20021;-37
2022/09/05 13:44:26;;;;;;;2.03;1.10;;;31.50;82.00;;;;;;5061025;28;20029;-32
2022/09/05 13:47:01;;;;;;;5.15;1.10;;;31.50;82.00;;;;;;5061528;28;20089;-32
2022/09/05 13:49:35;;;;;;;1.20;0.85;;;31.50;81.80;;;;;;5062631;28;20074;-37
2022/09/05 13:52:10;;;;;;;2.35;0.80;;;31.40;82.20;;;;;;5058063;28;20103;-37
2022/09/05 13:54:43;;;;;;;1.73;0.73;;;31.20;81.70;;;;;;5059786;28;20024;-34
2022/09/05 13:57:33;;;;;;;1.30;1.20;;;31.20;81.50;;;;;;5060532;28;20491;-34
2022/09/05 14:00:11;;;;;;;1.00;0.90;;;31.00;81.70;;;;;;5062763;28;20086;-33
2022/09/05 14:05:51;;;;;;;1.20;1.05;;;30.80;81.70;;;;;;5062640;28;20043;-38
2022/09/05 14:09:03;;;;;;;0.93;0.90;;;30.80;81.60;;;;;;5058646;28;20029;-35
2022/09/05 14:11:35;;;;;;;1.00;1.00;;;30.70;81.90;;;;;;5061816;28;20036;-34
2022/09/05 14:14:33;;;;;;;0.80;0.80;;;30.60;82.90;;;;;;5063347;28;20534;-33
2022/09/05 14:17:26;;;;;;;1.15;1.00;;;30.60;82.40;;;;;;5064799;28;20033;-37
2022/09/05 14:23:03;;;;;;;6.28;1.38;;;30.50;83.10;;;;;;5059512;28;21569;-34
2022/09/05 14:25:36;;;;;;;8.90;1.17;;;30.50;83.70;;;;;;5057629;28;20029;-40